createdAt,value
2023-05-07T00:00:49.480Z,0.00
2023-05-07T00:01:49.397Z,0.00
2023-05-07T00:02:49.475Z,0.00
2023-05-07T00:03:49.501Z,0.00
2023-05-07T00:04:49.438Z,0.00
2023-05-07T00:05:49.373Z,0.00
2023-05-07T00:06:49.375Z,0.00
2023-05-07T00:07:49.421Z,0.00
2023-05-07T00:08:49.361Z,0.00
2023-05-07T00:09:49.379Z,0.00
2023-05-07T00:10:49.355Z,0.00
2023-05-07T00:11:49.359Z,0.00
2023-05-07T00:12:49.424Z,0.00
2023-05-07T00:13:49.331Z,0.00
2023-05-07T00:14:49.358Z,0.00
2023-05-07T00:15:49.332Z,0.00
2023-05-07T00:16:49.444Z,0.00
2023-05-07T00:17:49.344Z,0.00
2023-05-07T00:18:49.312Z,0.00
2023-05-07T00:19:49.327Z,0.00
2023-05-07T00:20:49.301Z,0.00
2023-05-07T00:21:49.321Z,0.00
2023-05-07T00:22:49.298Z,0.00
2023-05-07T00:23:49.296Z,0.00
2023-05-07T00:24:49.275Z,0.00
2023-05-07T00:25:49.280Z,0.00
2023-05-07T00:26:49.273Z,0.00
2023-05-07T00:27:49.272Z,0.00
2023-05-07T00:28:49.262Z,0.00
2023-05-07T00:29:49.292Z,0.00
2023-05-07T00:30:49.256Z,0.00
2023-05-07T00:31:49.323Z,0.00
2023-05-07T00:32:49.266Z,0.00
2023-05-07T00:33:49.244Z,0.00
2023-05-07T00:34:49.236Z,0.00
2023-05-07T00:35:49.248Z,0.00
2023-05-07T00:36:49.222Z,0.00
2023-05-07T00:37:50.102Z,0.00
2023-05-07T00:38:49.238Z,0.00
2023-05-07T00:39:49.232Z,0.00
2023-05-07T00:40:49.238Z,0.00
2023-05-07T00:41:49.202Z,0.00
2023-05-07T00:42:49.202Z,0.00
2023-05-07T00:43:49.203Z,0.00
2023-05-07T00:44:49.193Z,0.00
2023-05-07T00:45:49.218Z,0.00
2023-05-07T00:46:49.179Z,0.00
2023-05-07T00:47:49.248Z,0.00
2023-05-07T00:48:49.187Z,0.00
2023-05-07T00:49:49.154Z,0.00
2023-05-07T00:50:49.317Z,0.00
2023-05-07T00:51:49.151Z,0.00
2023-05-07T00:52:49.146Z,0.00
2023-05-07T00:53:49.148Z,0.00
2023-05-07T00:54:49.160Z,0.00
2023-05-07T00:55:49.145Z,0.00
2023-05-07T00:56:49.156Z,0.00
2023-05-07T00:57:49.133Z,0.00
2023-05-07T00:58:49.171Z,0.00
2023-05-07T00:59:49.110Z,0.00
2023-05-07T01:00:49.156Z,0.00
2023-05-07T01:01:49.151Z,0.00
2023-05-07T01:02:49.158Z,0.00
2023-05-07T01:03:49.171Z,0.00
2023-05-07T01:04:49.097Z,0.00
2023-05-07T01:05:49.115Z,0.00
2023-05-07T01:06:49.087Z,0.00
2023-05-07T01:07:49.076Z,0.00
2023-05-07T01:08:49.104Z,0.00
2023-05-07T01:09:49.082Z,0.00
2023-05-07T01:10:49.078Z,0.00
2023-05-07T01:11:49.071Z,0.00
2023-05-07T01:12:49.132Z,0.00
2023-05-07T01:13:49.065Z,0.00
2023-05-07T01:14:49.058Z,0.00
2023-05-07T01:15:49.045Z,0.00
2023-05-07T01:16:49.096Z,0.00
2023-05-07T01:17:49.078Z,0.00
2023-05-07T01:18:49.036Z,0.00
2023-05-07T01:19:49.047Z,0.00
2023-05-07T01:20:49.028Z,0.00
2023-05-07T01:21:49.053Z,0.00
2023-05-07T01:22:49.017Z,0.00
2023-05-07T01:23:49.056Z,0.00
2023-05-07T01:24:49.025Z,0.00
2023-05-07T01:25:48.987Z,0.00
2023-05-07T01:26:48.999Z,0.00
2023-05-07T01:27:48.994Z,0.00
2023-05-07T01:28:49.014Z,0.00
2023-05-07T01:29:48.987Z,0.00
2023-05-07T01:30:48.985Z,0.00
2023-05-07T01:31:49.048Z,0.00
2023-05-07T01:32:49.030Z,0.00
2023-05-07T01:33:48.958Z,0.00
2023-05-07T01:34:48.953Z,0.00
2023-05-07T01:35:48.944Z,0.00
2023-05-07T01:36:48.967Z,0.00
2023-05-07T01:37:48.984Z,0.00
2023-05-07T01:38:48.953Z,0.00
2023-05-07T01:39:48.954Z,0.00
2023-05-07T01:40:48.932Z,0.00
2023-05-07T01:41:48.939Z,0.00
2023-05-07T01:42:48.920Z,0.00
2023-05-07T01:43:48.914Z,0.00
2023-05-07T01:44:48.909Z,0.00
2023-05-07T01:45:48.904Z,0.00
2023-05-07T01:46:48.953Z,0.00
2023-05-07T01:47:48.959Z,0.00
2023-05-07T01:48:48.896Z,0.00
2023-05-07T01:49:48.882Z,0.00
2023-05-07T01:50:48.875Z,0.00
2023-05-07T01:51:48.873Z,0.00
2023-05-07T01:52:48.997Z,0.00
2023-05-07T01:53:48.855Z,0.00
2023-05-07T01:54:48.865Z,0.00
2023-05-07T01:55:48.854Z,0.00
2023-05-07T01:56:48.843Z,0.00
2023-05-07T01:57:48.897Z,0.00
2023-05-07T01:58:48.870Z,0.00
2023-05-07T01:59:48.837Z,0.00
2023-05-07T02:00:48.837Z,0.00
2023-05-07T02:01:48.867Z,0.00
2023-05-07T02:02:48.882Z,0.00
2023-05-07T02:03:48.947Z,0.00
2023-05-07T02:04:48.813Z,0.00
2023-05-07T02:05:48.815Z,0.00
2023-05-07T02:06:48.810Z,0.00
2023-05-07T02:07:48.790Z,0.00
2023-05-07T02:08:48.862Z,0.00
2023-05-07T02:09:48.783Z,0.00
2023-05-07T02:10:48.809Z,0.00
2023-05-07T02:11:48.770Z,0.00
2023-05-07T02:12:48.822Z,0.00
2023-05-07T02:13:48.772Z,0.00
2023-05-07T02:14:48.818Z,0.00
2023-05-07T02:15:48.771Z,0.00
2023-05-07T02:16:48.782Z,0.00
2023-05-07T02:17:49.644Z,0.00
2023-05-07T02:18:48.746Z,0.00
2023-05-07T02:19:48.755Z,0.00
2023-05-07T02:20:49.616Z,0.00
2023-05-07T02:21:48.728Z,0.00
2023-05-07T02:22:48.744Z,0.00
2023-05-07T02:23:48.737Z,0.00
2023-05-07T02:24:48.726Z,0.00
2023-05-07T02:25:48.714Z,0.00
2023-05-07T02:26:48.704Z,0.00
2023-05-07T02:27:48.708Z,0.00
2023-05-07T02:28:48.699Z,0.00
2023-05-07T02:29:48.692Z,0.00
2023-05-07T02:30:48.694Z,0.00
2023-05-07T02:31:48.765Z,0.00
2023-05-07T02:32:48.754Z,0.00
2023-05-07T02:33:48.687Z,0.00
2023-05-07T02:34:48.668Z,0.00
2023-05-07T02:35:48.668Z,0.00
2023-05-07T02:36:48.656Z,0.00
2023-05-07T02:37:48.665Z,0.00
2023-05-07T02:38:48.673Z,0.00
2023-05-07T02:39:48.653Z,0.00
2023-05-07T02:40:48.900Z,0.00
2023-05-07T02:41:48.640Z,0.00
2023-05-07T02:42:48.627Z,0.00
2023-05-07T02:43:48.634Z,0.00
2023-05-07T02:44:48.618Z,0.00
2023-05-07T02:45:48.638Z,0.00
2023-05-07T02:46:48.614Z,0.00
2023-05-07T02:47:48.704Z,0.00
2023-05-07T02:48:48.614Z,0.00
2023-05-07T02:49:48.620Z,0.00
2023-05-07T02:50:48.598Z,0.00
2023-05-07T02:51:48.583Z,0.00
2023-05-07T02:52:48.580Z,0.00
2023-05-07T02:53:48.589Z,0.00
2023-05-07T02:54:48.573Z,0.00
2023-05-07T02:55:48.583Z,0.00
2023-05-07T02:56:48.652Z,0.00
2023-05-07T02:57:48.578Z,0.00
2023-05-07T02:58:48.554Z,0.00
2023-05-07T02:59:48.574Z,0.00
2023-05-07T03:00:48.562Z,0.00
2023-05-07T03:01:48.557Z,0.00
2023-05-07T03:02:48.543Z,0.00
2023-05-07T03:03:48.560Z,0.00
2023-05-07T03:04:48.536Z,0.00
2023-05-07T03:05:48.533Z,0.00
2023-05-07T03:06:48.516Z,0.00
2023-05-07T03:07:48.553Z,0.00
2023-05-07T03:08:48.512Z,0.00
2023-05-07T03:09:48.508Z,0.00
2023-05-07T03:10:48.509Z,0.00
2023-05-07T03:11:48.488Z,0.00
2023-05-07T03:12:48.585Z,0.00
2023-05-07T03:13:48.482Z,0.00
2023-05-07T03:14:48.477Z,0.00
2023-05-07T03:15:48.510Z,0.00
2023-05-07T03:16:48.495Z,0.00
2023-05-07T03:17:48.481Z,0.00
2023-05-07T03:18:48.638Z,0.00
2023-05-07T03:19:48.451Z,0.00
2023-05-07T03:20:48.512Z,0.00
2023-05-07T03:21:49.135Z,0.00
2023-05-07T03:22:48.440Z,0.00
2023-05-07T03:23:48.439Z,0.00
2023-05-07T03:24:48.450Z,0.00
2023-05-07T03:25:50.627Z,0.00
2023-05-07T03:26:48.416Z,0.00
2023-05-07T03:27:48.413Z,0.00
2023-05-07T03:28:48.494Z,0.00
2023-05-07T03:29:49.136Z,0.00
2023-05-07T03:30:48.400Z,0.00
2023-05-07T03:31:48.427Z,0.00
2023-05-07T03:32:48.445Z,0.00
2023-05-07T03:33:48.397Z,0.00
2023-05-07T03:34:48.370Z,0.00
2023-05-07T03:35:48.380Z,0.00
2023-05-07T03:36:48.376Z,0.00
2023-05-07T03:37:48.371Z,0.00
2023-05-07T03:38:48.363Z,0.00
2023-05-07T03:39:48.358Z,0.00
2023-05-07T03:40:48.350Z,0.00
2023-05-07T03:41:48.345Z,0.00
2023-05-07T03:42:48.846Z,0.00
2023-05-07T03:43:48.358Z,0.00
2023-05-07T03:44:48.341Z,0.00
2023-05-07T03:45:48.344Z,0.00
2023-05-07T03:46:48.377Z,0.00
2023-05-07T03:47:48.376Z,0.00
2023-05-07T03:48:48.348Z,0.00
2023-05-07T03:49:48.309Z,0.00
2023-05-07T03:50:48.322Z,0.00
2023-05-07T03:51:48.300Z,0.00
2023-05-07T03:52:48.295Z,0.00
2023-05-07T03:53:48.301Z,0.00
2023-05-07T03:54:48.279Z,0.00
2023-05-07T03:55:48.292Z,0.00
2023-05-07T03:56:48.277Z,0.00
2023-05-07T03:57:48.296Z,0.00
2023-05-07T03:58:48.273Z,0.00
2023-05-07T03:59:48.275Z,0.00
2023-05-07T04:00:48.343Z,0.00
2023-05-07T04:01:48.302Z,0.00
2023-05-07T04:02:48.382Z,0.00
2023-05-07T04:03:48.316Z,0.00
2023-05-07T04:04:48.265Z,0.00
2023-05-07T04:05:48.241Z,0.00
2023-05-07T04:06:48.229Z,0.00
2023-05-07T04:07:49.133Z,0.00
2023-05-07T04:08:48.240Z,0.00
2023-05-07T04:09:48.237Z,0.00
2023-05-07T04:10:48.235Z,0.00
2023-05-07T04:11:48.210Z,5.63
2023-05-07T04:12:48.220Z,5.63
2023-05-07T04:13:48.219Z,5.63
2023-05-07T04:14:48.196Z,5.63
2023-05-07T04:15:48.187Z,5.63
2023-05-07T04:16:48.327Z,5.63
2023-05-07T04:17:48.233Z,5.63
2023-05-07T04:18:48.175Z,5.63
2023-05-07T04:19:48.165Z,5.63
2023-05-07T04:20:48.161Z,5.63
2023-05-07T04:21:48.154Z,5.63
2023-05-07T04:22:48.149Z,5.63
2023-05-07T04:23:48.148Z,5.63
2023-05-07T04:24:48.160Z,5.63
2023-05-07T04:25:48.173Z,5.63
2023-05-07T04:26:48.146Z,5.63
2023-05-07T04:27:48.131Z,5.63
2023-05-07T04:28:48.117Z,11.25
2023-05-07T04:29:48.129Z,11.25
2023-05-07T04:30:48.114Z,11.25
2023-05-07T04:31:48.169Z,11.25
2023-05-07T04:32:48.230Z,11.25
2023-05-07T04:33:48.107Z,11.25
2023-05-07T04:34:48.637Z,11.25
2023-05-07T04:35:48.118Z,11.25
2023-05-07T04:36:48.084Z,11.25
2023-05-07T04:37:48.088Z,16.88
2023-05-07T04:38:48.069Z,16.88
2023-05-07T04:39:48.094Z,16.88
2023-05-07T04:40:48.073Z,16.88
2023-05-07T04:41:48.061Z,16.88
2023-05-07T04:42:48.077Z,16.88
2023-05-07T04:43:48.047Z,16.88
2023-05-07T04:44:48.067Z,16.88
2023-05-07T04:45:48.056Z,16.88
2023-05-07T04:46:48.029Z,16.88
2023-05-07T04:47:48.124Z,16.88
2023-05-07T04:48:48.105Z,16.88
2023-05-07T04:49:48.014Z,16.88
2023-05-07T04:50:48.045Z,16.88
2023-05-07T04:51:48.008Z,16.88
2023-05-07T04:52:48.007Z,16.88
2023-05-07T04:53:47.997Z,22.50
2023-05-07T04:54:47.987Z,22.50
2023-05-07T04:55:47.990Z,22.50
2023-05-07T04:56:47.986Z,22.50
2023-05-07T04:57:47.999Z,22.50
2023-05-07T04:58:47.978Z,22.50
2023-05-07T04:59:48.004Z,22.50
2023-05-07T05:00:47.970Z,22.50
2023-05-07T05:01:47.980Z,22.50
2023-05-07T05:02:48.052Z,22.50
2023-05-07T05:03:47.988Z,22.50
2023-05-07T05:04:48.179Z,22.50
2023-05-07T05:05:47.957Z,22.50
2023-05-07T05:06:47.962Z,22.50
2023-05-07T05:07:47.953Z,28.13
2023-05-07T05:08:47.948Z,28.13
2023-05-07T05:09:47.944Z,28.13
2023-05-07T05:10:47.954Z,28.13
2023-05-07T05:11:47.963Z,28.13
2023-05-07T05:12:47.915Z,28.13
2023-05-07T05:13:47.911Z,28.13
2023-05-07T05:14:47.937Z,28.13
2023-05-07T05:15:47.916Z,28.13
2023-05-07T05:16:47.894Z,28.13
2023-05-07T05:17:47.948Z,22.50
2023-05-07T05:18:47.887Z,22.50
2023-05-07T05:19:47.882Z,22.50
2023-05-07T05:20:47.941Z,28.13
2023-05-07T05:21:47.876Z,28.13
2023-05-07T05:22:47.867Z,28.13
2023-05-07T05:23:47.871Z,28.13
2023-05-07T05:24:47.864Z,28.13
2023-05-07T05:25:47.856Z,28.13
2023-05-07T05:26:47.846Z,28.13
2023-05-07T05:27:47.840Z,28.13
2023-05-07T05:28:47.834Z,28.13
2023-05-07T05:29:47.848Z,28.13
2023-05-07T05:30:47.859Z,28.13
2023-05-07T05:31:47.862Z,28.13
2023-05-07T05:32:47.909Z,33.75
2023-05-07T05:33:47.832Z,33.75
2023-05-07T05:34:47.817Z,33.75
2023-05-07T05:35:47.812Z,33.75
2023-05-07T05:36:47.802Z,33.75
2023-05-07T05:37:47.803Z,33.75
2023-05-07T05:38:47.806Z,33.75
2023-05-07T05:39:47.805Z,39.38
2023-05-07T05:40:47.780Z,39.38
2023-05-07T05:41:47.789Z,45.00
2023-05-07T05:42:47.782Z,56.25
2023-05-07T05:43:47.796Z,50.63
2023-05-07T05:44:47.763Z,50.63
2023-05-07T05:45:47.765Z,50.63
2023-05-07T05:46:47.811Z,61.88
2023-05-07T05:47:47.794Z,78.75
2023-05-07T05:48:47.761Z,84.38
2023-05-07T05:49:47.758Z,67.50
2023-05-07T05:50:47.746Z,84.38
2023-05-07T05:51:47.780Z,106.88
2023-05-07T05:52:47.801Z,118.13
2023-05-07T05:53:47.725Z,146.25
2023-05-07T05:54:47.745Z,84.38
2023-05-07T05:55:47.722Z,67.50
2023-05-07T05:56:47.714Z,84.38
2023-05-07T05:57:47.711Z,90.00
2023-05-07T05:58:48.702Z,106.88
2023-05-07T05:59:47.745Z,90.00
2023-05-07T06:00:47.704Z,101.25
2023-05-07T06:01:47.691Z,343.13
2023-05-07T06:02:47.816Z,1665.00
2023-05-07T06:03:47.682Z,1884.38
2023-05-07T06:04:47.690Z,658.13
2023-05-07T06:05:48.175Z,264.38
2023-05-07T06:06:47.673Z,191.25
2023-05-07T06:07:47.682Z,320.63
2023-05-07T06:08:47.760Z,360.00
2023-05-07T06:09:47.666Z,742.50
2023-05-07T06:10:47.678Z,551.25
2023-05-07T06:11:47.667Z,185.63
2023-05-07T06:12:47.711Z,191.25
2023-05-07T06:13:47.674Z,191.25
2023-05-07T06:14:47.647Z,129.38
2023-05-07T06:15:47.670Z,118.13
2023-05-07T06:16:47.690Z,90.00
2023-05-07T06:17:47.692Z,90.00
2023-05-07T06:18:47.691Z,101.25
2023-05-07T06:19:47.653Z,95.63
2023-05-07T06:20:47.633Z,95.63
2023-05-07T06:21:47.650Z,95.63
2023-05-07T06:22:47.648Z,112.50
2023-05-07T06:23:47.632Z,275.63
2023-05-07T06:24:47.631Z,286.88
2023-05-07T06:25:47.633Z,292.50
2023-05-07T06:26:47.629Z,118.13
2023-05-07T06:27:47.630Z,90.00
2023-05-07T06:28:47.649Z,78.75
2023-05-07T06:29:47.616Z,61.88
2023-05-07T06:30:47.639Z,67.50
2023-05-07T06:31:47.636Z,67.50
2023-05-07T06:32:47.702Z,67.50
2023-05-07T06:33:47.607Z,84.38
2023-05-07T06:34:47.604Z,95.63
2023-05-07T06:35:47.601Z,101.25
2023-05-07T06:36:47.597Z,84.38
2023-05-07T06:37:48.168Z,73.13
2023-05-07T06:38:47.590Z,67.50
2023-05-07T06:39:47.590Z,73.13
2023-05-07T06:40:47.657Z,106.88
2023-05-07T06:41:47.590Z,106.88
2023-05-07T06:42:47.606Z,106.88
2023-05-07T06:43:47.579Z,146.25
2023-05-07T06:44:47.583Z,140.63
2023-05-07T06:45:47.602Z,140.63
2023-05-07T06:46:47.590Z,95.63
2023-05-07T06:47:47.609Z,84.38
2023-05-07T06:48:47.585Z,90.00
2023-05-07T06:49:47.566Z,90.00
2023-05-07T06:50:47.662Z,90.00
2023-05-07T06:51:47.549Z,78.75
2023-05-07T06:52:47.572Z,67.50
2023-05-07T06:53:47.573Z,61.88
2023-05-07T06:54:47.557Z,61.88
2023-05-07T06:55:47.544Z,73.13
2023-05-07T06:56:47.536Z,95.63
2023-05-07T06:57:47.527Z,90.00
2023-05-07T06:58:47.535Z,84.38
2023-05-07T06:59:47.531Z,78.75
2023-05-07T07:00:47.549Z,78.75
2023-05-07T07:01:47.557Z,78.75
2023-05-07T07:02:47.650Z,73.13
2023-05-07T07:03:47.512Z,84.38
2023-05-07T07:04:47.542Z,106.88
2023-05-07T07:05:47.518Z,163.13
2023-05-07T07:06:47.505Z,106.88
2023-05-07T07:07:47.491Z,157.50
2023-05-07T07:08:47.491Z,219.38
2023-05-07T07:09:47.508Z,157.50
2023-05-07T07:10:47.495Z,129.38
2023-05-07T07:11:47.485Z,168.75
2023-05-07T07:12:47.583Z,326.25
2023-05-07T07:13:47.477Z,433.13
2023-05-07T07:14:48.169Z,247.50
2023-05-07T07:15:47.496Z,360.00
2023-05-07T07:16:47.472Z,258.75
2023-05-07T07:17:47.575Z,241.88
2023-05-07T07:18:47.471Z,286.88
2023-05-07T07:19:47.463Z,213.75
2023-05-07T07:20:47.464Z,151.88
2023-05-07T07:21:47.461Z,140.63
2023-05-07T07:22:47.467Z,185.63
2023-05-07T07:23:47.444Z,191.25
2023-05-07T07:24:47.472Z,315.00
2023-05-07T07:25:47.432Z,264.38
2023-05-07T07:26:47.439Z,382.50
2023-05-07T07:27:47.457Z,270.00
2023-05-07T07:28:47.517Z,523.13
2023-05-07T07:29:47.486Z,264.38
2023-05-07T07:30:47.436Z,253.13
2023-05-07T07:31:47.454Z,275.63
2023-05-07T07:32:47.522Z,298.13
2023-05-07T07:33:47.459Z,315.00
2023-05-07T07:34:47.422Z,365.63
2023-05-07T07:35:47.426Z,663.75
2023-05-07T07:36:47.424Z,292.50
2023-05-07T07:37:48.738Z,298.13
2023-05-07T07:38:47.415Z,275.63
2023-05-07T07:39:47.415Z,635.63
2023-05-07T07:40:47.437Z,292.50
2023-05-07T07:41:47.428Z,236.25
2023-05-07T07:42:47.502Z,556.88
2023-05-07T07:43:48.563Z,281.25
2023-05-07T07:44:47.561Z,753.75
2023-05-07T07:45:47.413Z,765.00
2023-05-07T07:46:47.462Z,781.88
2023-05-07T07:47:47.460Z,770.63
2023-05-07T07:48:47.418Z,810.00
2023-05-07T07:49:47.426Z,461.25
2023-05-07T07:50:47.631Z,635.63
2023-05-07T07:51:47.478Z,596.25
2023-05-07T07:52:47.442Z,275.63
2023-05-07T07:53:47.435Z,697.50
2023-05-07T07:54:47.444Z,708.75
2023-05-07T07:55:47.449Z,669.38
2023-05-07T07:56:47.449Z,613.13
2023-05-07T07:57:47.456Z,568.13
2023-05-07T07:58:47.466Z,511.88
2023-05-07T07:59:47.490Z,478.13
2023-05-07T08:00:47.556Z,472.50
2023-05-07T08:01:47.549Z,472.50
2023-05-07T08:02:47.558Z,421.88
2023-05-07T08:03:47.586Z,421.88
2023-05-07T08:04:47.507Z,421.88
2023-05-07T08:05:47.515Z,410.63
2023-05-07T08:06:47.528Z,405.00
2023-05-07T08:07:47.529Z,421.88
2023-05-07T08:08:47.538Z,241.88
2023-05-07T08:09:47.540Z,450.00
2023-05-07T08:10:47.564Z,365.63
2023-05-07T08:11:47.558Z,360.00
2023-05-07T08:12:47.600Z,382.50
2023-05-07T08:13:47.570Z,405.00
2023-05-07T08:14:47.583Z,247.50
2023-05-07T08:15:47.630Z,365.63
2023-05-07T08:16:47.802Z,371.25
2023-05-07T08:17:47.718Z,388.13
2023-05-07T08:18:47.639Z,382.50
2023-05-07T08:19:47.627Z,399.38
2023-05-07T08:20:47.623Z,320.63
2023-05-07T08:21:47.629Z,388.13
2023-05-07T08:22:47.971Z,348.75
2023-05-07T08:23:47.687Z,247.50
2023-05-07T08:24:47.650Z,303.75
2023-05-07T08:25:47.640Z,213.75
2023-05-07T08:26:47.981Z,320.63
2023-05-07T08:27:47.657Z,343.13
2023-05-07T08:28:47.663Z,236.25
2023-05-07T08:29:47.660Z,253.13
2023-05-07T08:30:47.764Z,354.38
2023-05-07T08:31:47.664Z,230.63
2023-05-07T08:32:47.742Z,365.63
2023-05-07T08:33:47.667Z,258.75
2023-05-07T08:34:47.671Z,337.50
2023-05-07T08:35:47.679Z,354.38
2023-05-07T08:36:47.698Z,360.00
2023-05-07T08:37:47.705Z,303.75
2023-05-07T08:38:47.735Z,225.00
2023-05-07T08:39:47.750Z,309.38
2023-05-07T08:40:47.769Z,270.00
2023-05-07T08:41:48.221Z,213.75
2023-05-07T08:42:47.693Z,253.13
2023-05-07T08:43:47.701Z,213.75
2023-05-07T08:44:47.720Z,185.63
2023-05-07T08:45:47.707Z,202.50
2023-05-07T08:46:47.883Z,202.50
2023-05-07T08:47:47.745Z,264.38
2023-05-07T08:48:47.847Z,241.88
2023-05-07T08:49:47.707Z,253.13
2023-05-07T08:50:47.718Z,264.38
2023-05-07T08:51:47.693Z,281.25
2023-05-07T08:52:47.698Z,286.88
2023-05-07T08:53:47.701Z,286.88
2023-05-07T08:54:47.711Z,275.63
2023-05-07T08:55:48.223Z,298.13
2023-05-07T08:56:47.705Z,303.75
2023-05-07T08:57:47.719Z,213.75
2023-05-07T08:58:47.713Z,208.13
2023-05-07T08:59:47.741Z,253.13
2023-05-07T09:00:47.709Z,236.25
2023-05-07T09:01:47.754Z,275.63
2023-05-07T09:02:47.777Z,270.00
2023-05-07T09:03:47.730Z,264.38
2023-05-07T09:04:47.820Z,258.75
2023-05-07T09:05:47.717Z,230.63
2023-05-07T09:06:47.709Z,253.13
2023-05-07T09:07:47.740Z,219.38
2023-05-07T09:08:47.721Z,286.88
2023-05-07T09:09:47.706Z,241.88
2023-05-07T09:10:47.768Z,275.63
2023-05-07T09:11:47.731Z,270.00
2023-05-07T09:12:47.799Z,264.38
2023-05-07T09:13:47.845Z,241.88
2023-05-07T09:14:47.739Z,258.75
2023-05-07T09:15:47.747Z,264.38
2023-05-07T09:16:48.367Z,219.38
2023-05-07T09:17:47.932Z,208.13
2023-05-07T09:18:47.738Z,230.63
2023-05-07T09:19:47.718Z,196.88
2023-05-07T09:20:47.750Z,219.38
2023-05-07T09:21:47.802Z,174.38
2023-05-07T09:22:47.729Z,174.38
2023-05-07T09:23:47.746Z,191.25
2023-05-07T09:24:47.732Z,196.88
2023-05-07T09:25:47.738Z,191.25
2023-05-07T09:26:47.732Z,219.38
2023-05-07T09:27:47.782Z,196.88
2023-05-07T09:28:47.726Z,247.50
2023-05-07T09:29:47.773Z,241.88
2023-05-07T09:30:47.744Z,253.13
2023-05-07T09:31:47.804Z,253.13
2023-05-07T09:32:47.855Z,236.25
2023-05-07T09:33:48.219Z,225.00
2023-05-07T09:34:47.742Z,258.75
2023-05-07T09:35:47.721Z,247.50
2023-05-07T09:36:47.799Z,253.13
2023-05-07T09:37:47.733Z,219.38
2023-05-07T09:38:47.729Z,247.50
2023-05-07T09:39:47.779Z,185.63
2023-05-07T09:40:47.722Z,168.75
2023-05-07T09:41:47.725Z,168.75
2023-05-07T09:42:47.733Z,163.13
2023-05-07T09:43:47.719Z,163.13
2023-05-07T09:44:47.736Z,157.50
2023-05-07T09:45:47.768Z,146.25
2023-05-07T09:46:47.751Z,151.88
2023-05-07T09:47:47.808Z,174.38
2023-05-07T09:48:47.723Z,185.63
2023-05-07T09:49:47.794Z,191.25
2023-05-07T09:50:47.788Z,191.25
2023-05-07T09:51:47.723Z,191.25
2023-05-07T09:52:47.829Z,219.38
2023-05-07T09:53:47.745Z,163.13
2023-05-07T09:54:47.760Z,151.88
2023-05-07T09:55:47.774Z,151.88
2023-05-07T09:56:47.757Z,174.38
2023-05-07T09:57:47.725Z,168.75
2023-05-07T09:58:47.760Z,168.75
2023-05-07T09:59:47.762Z,191.25
2023-05-07T10:00:47.921Z,202.50
2023-05-07T10:01:47.779Z,202.50
2023-05-07T10:02:47.896Z,185.63
2023-05-07T10:03:48.007Z,174.38
2023-05-07T10:04:47.813Z,168.75
2023-05-07T10:05:47.754Z,163.13
2023-05-07T10:06:47.744Z,174.38
2023-05-07T10:07:47.799Z,151.88
2023-05-07T10:08:47.799Z,151.88
2023-05-07T10:09:49.054Z,163.13
2023-05-07T10:10:47.741Z,151.88
2023-05-07T10:11:47.790Z,180.00
2023-05-07T10:12:47.812Z,151.88
2023-05-07T10:13:47.745Z,157.50
2023-05-07T10:14:47.741Z,174.38
2023-05-07T10:15:47.757Z,213.75
2023-05-07T10:16:47.795Z,185.63
2023-05-07T10:17:47.907Z,185.63
2023-05-07T10:18:47.835Z,208.13
2023-05-07T10:19:47.870Z,225.00
2023-05-07T10:20:47.768Z,180.00
2023-05-07T10:21:47.830Z,174.38
2023-05-07T10:22:47.818Z,191.25
2023-05-07T10:23:47.762Z,168.75
2023-05-07T10:24:47.826Z,163.13
2023-05-07T10:25:47.715Z,140.63
2023-05-07T10:26:47.754Z,123.75
2023-05-07T10:27:47.827Z,140.63
2023-05-07T10:28:47.948Z,118.13
2023-05-07T10:29:47.787Z,118.13
2023-05-07T10:30:47.841Z,123.75
2023-05-07T10:31:47.712Z,123.75
2023-05-07T10:32:47.854Z,118.13
2023-05-07T10:33:47.783Z,123.75
2023-05-07T10:34:47.804Z,135.00
2023-05-07T10:35:47.787Z,140.63
2023-05-07T10:36:47.780Z,140.63
2023-05-07T10:37:47.712Z,140.63
2023-05-07T10:38:47.858Z,140.63
2023-05-07T10:39:47.746Z,129.38
2023-05-07T10:40:48.461Z,123.75
2023-05-07T10:41:47.806Z,129.38
2023-05-07T10:42:47.792Z,135.00
2023-05-07T10:43:47.695Z,135.00
2023-05-07T10:44:47.859Z,135.00
2023-05-07T10:45:47.884Z,140.63
2023-05-07T10:46:47.839Z,151.88
2023-05-07T10:47:47.805Z,168.75
2023-05-07T10:48:47.813Z,151.88
2023-05-07T10:49:47.884Z,140.63
2023-05-07T10:50:47.764Z,140.63
2023-05-07T10:51:47.778Z,140.63
2023-05-07T10:52:47.704Z,140.63
2023-05-07T10:53:47.742Z,135.00
2023-05-07T10:54:48.278Z,140.63
2023-05-07T10:55:47.712Z,135.00
2023-05-07T10:56:47.857Z,146.25
2023-05-07T10:57:47.693Z,146.25
2023-05-07T10:58:47.810Z,157.50
2023-05-07T10:59:47.849Z,157.50
2023-05-07T11:00:47.674Z,151.88
2023-05-07T11:01:47.756Z,151.88
2023-05-07T11:02:47.720Z,157.50
2023-05-07T11:03:47.683Z,168.75
2023-05-07T11:04:47.709Z,174.38
2023-05-07T11:05:47.726Z,185.63
2023-05-07T11:06:47.704Z,151.88
2023-05-07T11:07:47.765Z,174.38
2023-05-07T11:08:47.755Z,196.88
2023-05-07T11:09:47.665Z,174.38
2023-05-07T11:10:47.665Z,163.13
2023-05-07T11:11:48.347Z,157.50
2023-05-07T11:12:47.796Z,157.50
2023-05-07T11:13:47.675Z,157.50
2023-05-07T11:14:47.659Z,123.75
2023-05-07T11:15:47.739Z,112.50
2023-05-07T11:16:47.757Z,112.50
2023-05-07T11:17:47.720Z,112.50
2023-05-07T11:18:48.279Z,112.50
2023-05-07T11:19:47.683Z,112.50
2023-05-07T11:20:47.657Z,112.50
2023-05-07T11:21:47.654Z,118.13
2023-05-07T11:22:47.654Z,118.13
2023-05-07T11:23:47.660Z,112.50
2023-05-07T11:24:47.653Z,118.13
2023-05-07T11:25:47.646Z,129.38
2023-05-07T11:26:47.656Z,135.00
2023-05-07T11:27:47.674Z,135.00
2023-05-07T11:28:47.723Z,123.75
2023-05-07T11:29:47.670Z,118.13
2023-05-07T11:30:50.365Z,118.13
2023-05-07T11:31:48.448Z,123.75
2023-05-07T11:32:47.682Z,146.25
2023-05-07T11:33:47.648Z,129.38
2023-05-07T11:34:47.640Z,146.25
2023-05-07T11:35:47.646Z,129.38
2023-05-07T11:36:47.641Z,129.38
2023-05-07T11:37:47.644Z,123.75
2023-05-07T11:38:48.336Z,129.38
2023-05-07T11:39:48.307Z,129.38
2023-05-07T11:40:47.646Z,174.38
2023-05-07T11:41:47.639Z,174.38
2023-05-07T11:42:47.631Z,163.13
2023-05-07T11:43:47.668Z,168.75
2023-05-07T11:44:47.756Z,174.38
2023-05-07T11:45:47.658Z,180.00
2023-05-07T11:46:47.650Z,185.63
2023-05-07T11:47:47.661Z,185.63
2023-05-07T11:48:47.624Z,174.38
2023-05-07T11:49:47.625Z,191.25
2023-05-07T11:50:47.620Z,180.00
2023-05-07T11:51:47.658Z,168.75
2023-05-07T11:52:47.660Z,163.13
2023-05-07T11:53:47.626Z,163.13
2023-05-07T11:54:47.633Z,163.13
2023-05-07T11:55:47.623Z,157.50
2023-05-07T11:56:47.630Z,174.38
2023-05-07T11:57:47.617Z,180.00
2023-05-07T11:58:47.617Z,191.25
2023-05-07T11:59:47.618Z,185.63
2023-05-07T12:00:47.615Z,168.75
2023-05-07T12:01:47.668Z,168.75
2023-05-07T12:02:47.701Z,157.50
2023-05-07T12:03:47.720Z,118.13
2023-05-07T12:04:48.313Z,123.75
2023-05-07T12:05:47.628Z,123.75
2023-05-07T12:06:47.638Z,146.25
2023-05-07T12:07:47.619Z,146.25
2023-05-07T12:08:48.378Z,174.38
2023-05-07T12:09:47.610Z,174.38
2023-05-07T12:10:47.606Z,174.38
2023-05-07T12:11:47.610Z,174.38
2023-05-07T12:12:47.641Z,168.75
2023-05-07T12:13:47.612Z,168.75
2023-05-07T12:14:47.631Z,146.25
2023-05-07T12:15:47.606Z,180.00
2023-05-07T12:16:47.680Z,140.63
2023-05-07T12:17:47.676Z,174.38
2023-05-07T12:18:47.643Z,174.38
2023-05-07T12:19:47.599Z,168.75
2023-05-07T12:20:47.612Z,168.75
2023-05-07T12:21:47.606Z,129.38
2023-05-07T12:22:47.602Z,168.75
2023-05-07T12:23:47.632Z,112.50
2023-05-07T12:24:47.713Z,112.50
2023-05-07T12:25:47.640Z,157.50
2023-05-07T12:26:47.614Z,95.63
2023-05-07T12:27:47.617Z,95.63
2023-05-07T12:28:47.605Z,106.88
2023-05-07T12:29:47.592Z,174.38
2023-05-07T12:30:47.598Z,140.63
2023-05-07T12:31:47.650Z,168.75
2023-05-07T12:32:48.379Z,168.75
2023-05-07T12:33:47.604Z,118.13
2023-05-07T12:34:47.653Z,129.38
2023-05-07T12:35:47.594Z,151.88
2023-05-07T12:36:47.633Z,157.50
2023-05-07T12:37:47.618Z,157.50
2023-05-07T12:38:47.601Z,151.88
2023-05-07T12:39:47.628Z,101.25
2023-05-07T12:40:47.637Z,101.25
2023-05-07T12:41:47.599Z,95.63
2023-05-07T12:42:47.598Z,84.38
2023-05-07T12:43:47.584Z,84.38
2023-05-07T12:44:47.594Z,140.63
2023-05-07T12:45:47.592Z,95.63
2023-05-07T12:46:47.619Z,101.25
2023-05-07T12:47:47.648Z,95.63
2023-05-07T12:48:47.635Z,90.00
2023-05-07T12:49:47.603Z,95.63